sensor_id;sensor_type;location;lat;lon;timestamp;P1;durP1;ratioP1;P2;durP2;ratioP2
76813;SDS011;65767;49.360;8.266;2023-01-05T00:00:27;1.47;;;1.37;;
76813;SDS011;65767;49.360;8.266;2023-01-05T00:01:27;1.40;;;1.30;;
76813;SDS011;65767;49.360;8.266;2023-01-05T00:02:28;1.40;;;1.30;;
76813;SDS011;65767;49.360;8.266;2023-01-05T00:03:28;1.73;;;1.60;;
76813;SDS011;65767;49.360;8.266;2023-01-05T00:04:29;1.67;;;1.57;;
76813;SDS011;65767;49.360;8.266;2023-01-05T00:05:29;1.60;;;1.50;;
76813;SDS011;65767;49.360;8.266;2023-01-05T00:06:30;1.80;;;1.70;;
76813;SDS011;65767;49.360;8.266;2023-01-05T00:07:30;1.93;;;1.77;;
76813;SDS011;65767;49.360;8.266;2023-01-05T00:08:31;1.83;;;1.73;;
76813;SDS011;65767;49.360;8.266;2023-01-05T00:09:32;2.03;;;1.80;;
76813;SDS011;65767;49.360;8.266;2023-01-05T00:10:35;2.37;;;2.00;;
76813;SDS011;65767;49.360;8.266;2023-01-05T00:13:31;2.25;;;2.00;;
76813;SDS011;65767;49.360;8.266;2023-01-05T00:14:50;2.22;;;2.03;;
76813;SDS011;65767;49.360;8.266;2023-01-05T00:16:12;3.17;;;1.67;;
76813;SDS011;65767;49.360;8.266;2023-01-05T00:17:31;2.05;;;1.95;;
76813;SDS011;65767;49.360;8.266;2023-01-05T00:18:50;2.63;;;1.80;;
76813;SDS011;65767;49.360;8.266;2023-01-05T00:20:12;2.20;;;1.98;;
76813;SDS011;65767;49.360;8.266;2023-01-05T00:21:32;1.88;;;1.77;;
76813;SDS011;65767;49.360;8.266;2023-01-05T00:22:52;3.15;;;1.77;;
76813;SDS011;65767;49.360;8.266;2023-01-05T00:23:52;1.70;;;1.60;;
76813;SDS011;65767;49.360;8.266;2023-01-05T00:24:52;2.00;;;1.87;;
76813;SDS011;65767;49.360;8.266;2023-01-05T00:25:53;1.67;;;1.57;;
76813;SDS011;65767;49.360;8.266;2023-01-05T00:26:53;1.40;;;1.30;;
76813;SDS011;65767;49.360;8.266;2023-01-05T00:27:54;1.90;;;1.50;;
76813;SDS011;65767;49.360;8.266;2023-01-05T00:28:57;2.55;;;1.30;;
76813;SDS011;65767;49.360;8.266;2023-01-05T00:29:57;1.67;;;1.50;;
76813;SDS011;65767;49.360;8.266;2023-01-05T00:30:58;2.30;;;1.70;;
76813;SDS011;65767;49.360;8.266;2023-01-05T00:31:58;3.47;;;1.23;;
76813;SDS011;65767;49.360;8.266;2023-01-05T00:32:59;1.47;;;1.30;;
76813;SDS011;65767;49.360;8.266;2023-01-05T00:33:59;1.60;;;1.50;;
76813;SDS011;65767;49.360;8.266;2023-01-05T00:35:00;1.70;;;1.50;;
76813;SDS011;65767;49.360;8.266;2023-01-05T00:36:01;2.50;;;1.55;;
76813;SDS011;65767;49.360;8.266;2023-01-05T00:37:01;1.60;;;1.50;;
76813;SDS011;65767;49.360;8.266;2023-01-05T00:38:01;1.83;;;1.40;;
76813;SDS011;65767;49.360;8.266;2023-01-05T00:39:02;1.83;;;1.73;;
76813;SDS011;65767;49.360;8.266;2023-01-05T00:40:03;1.60;;;1.50;;
76813;SDS011;65767;49.360;8.266;2023-01-05T00:41:04;1.80;;;1.30;;
76813;SDS011;65767;49.360;8.266;2023-01-05T00:42:04;2.37;;;1.60;;
76813;SDS011;65767;49.360;8.266;2023-01-05T00:43:05;1.30;;;1.07;;
76813;SDS011;65767;49.360;8.266;2023-01-05T00:44:05;1.40;;;1.30;;
76813;SDS011;65767;49.360;8.266;2023-01-05T00:45:06;1.37;;;1.20;;
76813;SDS011;65767;49.360;8.266;2023-01-05T00:46:07;1.40;;;1.30;;
76813;SDS011;65767;49.360;8.266;2023-01-05T00:47:07;1.50;;;1.30;;
76813;SDS011;65767;49.360;8.266;2023-01-05T00:48:08;1.30;;;1.20;;
76813;SDS011;65767;49.360;8.266;2023-01-05T00:49:08;2.77;;;1.10;;
76813;SDS011;65767;49.360;8.266;2023-01-05T00:50:09;1.47;;;1.10;;
76813;SDS011;65767;49.360;8.266;2023-01-05T00:51:11;1.13;;;1.05;;
76813;SDS011;65767;49.360;8.266;2023-01-05T00:52:12;1.57;;;1.00;;
76813;SDS011;65767;49.360;8.266;2023-01-05T00:53:12;1.30;;;1.20;;
76813;SDS011;65767;49.360;8.266;2023-01-05T00:54:12;1.23;;;1.13;;
76813;SDS011;65767;49.360;8.266;2023-01-05T00:55:13;2.50;;;1.30;;
76813;SDS011;65767;49.360;8.266;2023-01-05T00:56:13;1.10;;;1.00;;
76813;SDS011;65767;49.360;8.266;2023-01-05T00:57:14;2.17;;;1.13;;
76813;SDS011;65767;49.360;8.266;2023-01-05T00:58:14;2.03;;;1.30;;
76813;SDS011;65767;49.360;8.266;2023-01-05T00:59:15;1.40;;;1.17;;
76813;SDS011;65767;49.360;8.266;2023-01-05T01:00:17;1.38;;;1.27;;
76813;SDS011;65767;49.360;8.266;2023-01-05T01:01:18;1.00;;;1.00;;
76813;SDS011;65767;49.360;8.266;2023-01-05T01:02:18;1.30;;;1.10;;
76813;SDS011;65767;49.360;8.266;2023-01-05T01:03:19;1.00;;;1.00;;
76813;SDS011;65767;49.360;8.266;2023-01-05T01:04:20;1.30;;;1.20;;
76813;SDS011;65767;49.360;8.266;2023-01-05T01:05:20;1.50;;;1.00;;
76813;SDS011;65767;49.360;8.266;2023-01-05T01:06:21;1.07;;;1.07;;
76813;SDS011;65767;49.360;8.266;2023-01-05T01:07:23;1.15;;;1.02;;
76813;SDS011;65767;49.360;8.266;2023-01-05T01:08:23;2.10;;;1.30;;
76813;SDS011;65767;49.360;8.266;2023-01-05T01:09:24;0.90;;;0.90;;
76813;SDS011;65767;49.360;8.266;2023-01-05T01:10:24;1.33;;;1.13;;
76813;SDS011;65767;49.360;8.266;2023-01-05T01:11:25;0.97;;;0.90;;
76813;SDS011;65767;49.360;8.266;2023-01-05T01:12:25;1.13;;;1.10;;
76813;SDS011;65767;49.360;8.266;2023-01-05T01:13:25;0.70;;;0.70;;
76813;SDS011;65767;49.360;8.266;2023-01-05T01:14:28;2.47;;;1.23;;
76813;SDS011;65767;49.360;8.266;2023-01-05T01:15:28;1.10;;;1.00;;
76813;SDS011;65767;49.360;8.266;2023-01-05T01:16:28;1.53;;;1.30;;
76813;SDS011;65767;49.360;8.266;2023-01-05T01:17:29;2.13;;;1.00;;
76813;SDS011;65767;49.360;8.266;2023-01-05T01:18:31;1.20;;;1.10;;
76813;SDS011;65767;49.360;8.266;2023-01-05T01:19:32;1.07;;;1.00;;
76813;SDS011;65767;49.360;8.266;2023-01-05T01:20:33;1.00;;;1.00;;
76813;SDS011;65767;49.360;8.266;2023-01-05T01:21:33;1.37;;;1.07;;
76813;SDS011;65767;49.360;8.266;2023-01-05T01:22:33;1.20;;;1.00;;
76813;SDS011;65767;49.360;8.266;2023-01-05T01:23:34;1.00;;;0.97;;
76813;SDS011;65767;49.360;8.266;2023-01-05T01:24:37;1.48;;;1.17;;
76813;SDS011;65767;49.360;8.266;2023-01-05T01:25:37;1.40;;;1.20;;
76813;SDS011;65767;49.360;8.266;2023-01-05T01:26:38;1.13;;;1.00;;
76813;SDS011;65767;49.360;8.266;2023-01-05T01:27:39;0.90;;;0.90;;
76813;SDS011;65767;49.360;8.266;2023-01-05T01:28:39;1.87;;;1.30;;
76813;SDS011;65767;49.360;8.266;2023-01-05T01:29:40;0.83;;;0.83;;
76813;SDS011;65767;49.360;8.266;2023-01-05T01:30:40;1.53;;;0.80;;
76813;SDS011;65767;49.360;8.266;2023-01-05T01:31:40;1.03;;;1.00;;
76813;SDS011;65767;49.360;8.266;2023-01-05T01:32:41;1.10;;;1.00;;
76813;SDS011;65767;49.360;8.266;2023-01-05T01:33:41;1.70;;;0.90;;
76813;SDS011;65767;49.360;8.266;2023-01-05T01:34:44;2.05;;;0.95;;
76813;SDS011;65767;49.360;8.266;2023-01-05T01:35:44;1.00;;;1.00;;
76813;SDS011;65767;49.360;8.266;2023-01-05T01:36:45;1.03;;;0.93;;
76813;SDS011;65767;49.360;8.266;2023-01-05T01:37:46;1.10;;;1.00;;
76813;SDS011;65767;49.360;8.266;2023-01-05T01:38:47;1.93;;;1.03;;
76813;SDS011;65767;49.360;8.266;2023-01-05T01:39:47;0.87;;;0.73;;
76813;SDS011;65767;49.360;8.266;2023-01-05T01:40:49;1.38;;;0.88;;
76813;SDS011;65767;49.360;8.266;2023-01-05T01:41:49;0.80;;;0.80;;
76813;SDS011;65767;49.360;8.266;2023-01-05T01:42:50;0.90;;;0.90;;
76813;SDS011;65767;49.360;8.266;2023-01-05T01:43:51;1.30;;;1.17;;
76813;SDS011;65767;49.360;8.266;2023-01-05T01:45:00;2.80;;;0.73;;
76813;SDS011;65767;49.360;8.266;2023-01-05T01:46:09;1.13;;;1.00;;
76813;SDS011;65767;49.360;8.266;2023-01-05T01:47:11;0.70;;;0.70;;
76813;SDS011;65767;49.360;8.266;2023-01-05T01:48:13;1.92;;;0.82;;
76813;SDS011;65767;49.360;8.266;2023-01-05T01:49:16;1.33;;;0.80;;
76813;SDS011;65767;49.360;8.266;2023-01-05T01:50:18;1.10;;;1.00;;
76813;SDS011;65767;49.360;8.266;2023-01-05T01:51:20;0.90;;;0.82;;
76813;SDS011;65767;49.360;8.266;2023-01-05T01:52:22;0.80;;;0.80;;
76813;SDS011;65767;49.360;8.266;2023-01-05T01:53:30;0.80;;;0.80;;
76813;SDS011;65767;49.360;8.266;2023-01-05T01:54:31;1.80;;;0.90;;
76813;SDS011;65767;49.360;8.266;2023-01-05T01:55:31;1.67;;;1.20;;
76813;SDS011;65767;49.360;8.266;2023-01-05T01:56:36;0.80;;;0.80;;
76813;SDS011;65767;49.360;8.266;2023-01-05T01:57:38;1.88;;;1.00;;
76813;SDS011;65767;49.360;8.266;2023-01-05T01:58:39;0.80;;;0.80;;
76813;SDS011;65767;49.360;8.266;2023-01-05T01:59:39;1.10;;;1.00;;
76813;SDS011;65767;49.360;8.266;2023-01-05T02:00:40;1.40;;;1.23;;
76813;SDS011;65767;49.360;8.266;2023-01-05T02:01:41;2.08;;;0.95;;
76813;SDS011;65767;49.360;8.266;2023-01-05T02:02:41;0.67;;;0.67;;
76813;SDS011;65767;49.360;8.266;2023-01-05T02:03:42;1.90;;;1.00;;
76813;SDS011;65767;49.360;8.266;2023-01-05T02:04:43;1.05;;;0.95;;
76813;SDS011;65767;49.360;8.266;2023-01-05T02:05:44;1.10;;;1.00;;
76813;SDS011;65767;49.360;8.266;2023-01-05T02:06:45;0.87;;;0.87;;
76813;SDS011;65767;49.360;8.266;2023-01-05T02:07:46;1.23;;;1.03;;
76813;SDS011;65767;49.360;8.266;2023-01-05T02:08:46;2.03;;;0.95;;
76813;SDS011;65767;49.360;8.266;2023-01-05T02:09:47;1.60;;;0.95;;
76813;SDS011;65767;49.360;8.266;2023-01-05T02:15:08;1.20;;;0.93;;
76813;SDS011;65767;49.360;8.266;2023-01-05T02:17:42;1.45;;;1.35;;
76813;SDS011;65767;49.360;8.266;2023-01-05T02:27:52;1.00;;;0.90;;
76813;SDS011;65767;49.360;8.266;2023-01-05T02:31:35;1.13;;;0.90;;
76813;SDS011;65767;49.360;8.266;2023-01-05T02:36:27;2.78;;;0.98;;
76813;SDS011;65767;49.360;8.266;2023-01-05T02:40:38;0.55;;;0.55;;
76813;SDS011;65767;49.360;8.266;2023-01-05T02:42:49;1.10;;;0.90;;
76813;SDS011;65767;49.360;8.266;2023-01-05T02:43:52;1.35;;;0.70;;
76813;SDS011;65767;49.360;8.266;2023-01-05T02:44:54;0.80;;;0.70;;
76813;SDS011;65767;49.360;8.266;2023-01-05T02:45:55;0.60;;;0.60;;
76813;SDS011;65767;49.360;8.266;2023-01-05T02:47:02;1.00;;;0.90;;
76813;SDS011;65767;49.360;8.266;2023-01-05T02:48:03;0.57;;;0.55;;
76813;SDS011;65767;49.360;8.266;2023-01-05T02:49:04;1.80;;;0.73;;
76813;SDS011;65767;49.360;8.266;2023-01-05T02:51:07;0.60;;;0.55;;
76813;SDS011;65767;49.360;8.266;2023-01-05T02:52:08;0.98;;;0.70;;
76813;SDS011;65767;49.360;8.266;2023-01-05T02:54:43;1.33;;;0.60;;
76813;SDS011;65767;49.360;8.266;2023-01-05T02:55:48;1.23;;;0.70;;
76813;SDS011;65767;49.360;8.266;2023-01-05T02:57:02;1.00;;;0.77;;
76813;SDS011;65767;49.360;8.266;2023-01-05T02:58:06;0.40;;;0.40;;
76813;SDS011;65767;49.360;8.266;2023-01-05T03:00:24;1.58;;;0.60;;
76813;SDS011;65767;49.360;8.266;2023-01-05T03:01:28;1.77;;;0.60;;
76813;SDS011;65767;49.360;8.266;2023-01-05T03:02:29;0.98;;;0.70;;
76813;SDS011;65767;49.360;8.266;2023-01-05T03:03:32;1.13;;;0.80;;
76813;SDS011;65767;49.360;8.266;2023-01-05T03:04:36;0.90;;;0.40;;
76813;SDS011;65767;49.360;8.266;2023-01-05T03:05:47;0.70;;;0.57;;
76813;SDS011;65767;49.360;8.266;2023-01-05T03:06:51;3.05;;;0.52;;
76813;SDS011;65767;49.360;8.266;2023-01-05T03:07:57;0.52;;;0.40;;
76813;SDS011;65767;49.360;8.266;2023-01-05T03:09:07;1.17;;;0.40;;
76813;SDS011;65767;49.360;8.266;2023-01-05T03:10:07;0.40;;;0.40;;
76813;SDS011;65767;49.360;8.266;2023-01-05T03:11:37;1.52;;;0.50;;
76813;SDS011;65767;49.360;8.266;2023-01-05T03:12:59;0.73;;;0.40;;
76813;SDS011;65767;49.360;8.266;2023-01-05T03:14:22;0.45;;;0.40;;
76813;SDS011;65767;49.360;8.266;2023-01-05T03:15:29;2.05;;;0.50;;
76813;SDS011;65767;49.360;8.266;2023-01-05T03:16:30;1.33;;;0.65;;
76813;SDS011;65767;49.360;8.266;2023-01-05T03:17:51;0.60;;;0.30;;
76813;SDS011;65767;49.360;8.266;2023-01-05T03:18:54;1.77;;;0.55;;
76813;SDS011;65767;49.360;8.266;2023-01-05T03:20:15;0.80;;;0.50;;
76813;SDS011;65767;49.360;8.266;2023-01-05T03:21:17;1.02;;;0.60;;
76813;SDS011;65767;49.360;8.266;2023-01-05T03:22:25;0.93;;;0.50;;
76813;SDS011;65767;49.360;8.266;2023-01-05T03:23:45;1.02;;;0.70;;
76813;SDS011;65767;49.360;8.266;2023-01-05T03:25:05;0.70;;;0.50;;
76813;SDS011;65767;49.360;8.266;2023-01-05T03:26:25;0.50;;;0.50;;
76813;SDS011;65767;49.360;8.266;2023-01-05T03:27:46;1.15;;;0.28;;
76813;SDS011;65767;49.360;8.266;2023-01-05T03:29:05;1.23;;;0.50;;
76813;SDS011;65767;49.360;8.266;2023-01-05T03:30:28;1.77;;;0.60;;
76813;SDS011;65767;49.360;8.266;2023-01-05T03:31:53;1.05;;;0.40;;
76813;SDS011;65767;49.360;8.266;2023-01-05T03:33:17;0.47;;;0.30;;
76813;SDS011;65767;49.360;8.266;2023-01-05T03:34:47;1.27;;;0.57;;
76813;SDS011;65767;49.360;8.266;2023-01-05T03:36:07;1.60;;;0.50;;
76813;SDS011;65767;49.360;8.266;2023-01-05T03:37:15;1.27;;;0.30;;
76813;SDS011;65767;49.360;8.266;2023-01-05T03:38:22;0.30;;;0.30;;
76813;SDS011;65767;49.360;8.266;2023-01-05T03:39:25;0.75;;;0.45;;
76813;SDS011;65767;49.360;8.266;2023-01-05T03:40:28;1.23;;;0.60;;
76813;SDS011;65767;49.360;8.266;2023-01-05T03:41:30;0.98;;;0.60;;
76813;SDS011;65767;49.360;8.266;2023-01-05T03:42:31;0.80;;;0.50;;
76813;SDS011;65767;49.360;8.266;2023-01-05T03:43:35;1.08;;;0.73;;
76813;SDS011;65767;49.360;8.266;2023-01-05T03:44:37;0.88;;;0.50;;
76813;SDS011;65767;49.360;8.266;2023-01-05T03:45:39;0.80;;;0.70;;
76813;SDS011;65767;49.360;8.266;2023-01-05T03:46:43;2.28;;;0.73;;
76813;SDS011;65767;49.360;8.266;2023-01-05T03:47:44;0.98;;;0.93;;
76813;SDS011;65767;49.360;8.266;2023-01-05T03:48:44;1.63;;;0.70;;
76813;SDS011;65767;49.360;8.266;2023-01-05T03:49:45;0.63;;;0.60;;
76813;SDS011;65767;49.360;8.266;2023-01-05T03:50:46;1.40;;;0.60;;
76813;SDS011;65767;49.360;8.266;2023-01-05T03:51:48;2.13;;;0.90;;
76813;SDS011;65767;49.360;8.266;2023-01-05T03:52:49;0.50;;;0.50;;
76813;SDS011;65767;49.360;8.266;2023-01-05T03:53:49;1.03;;;0.70;;
76813;SDS011;65767;49.360;8.266;2023-01-05T03:54:51;0.60;;;0.60;;
76813;SDS011;65767;49.360;8.266;2023-01-05T03:55:51;1.13;;;0.67;;
76813;SDS011;65767;49.360;8.266;2023-01-05T03:56:52;1.17;;;0.70;;
76813;SDS011;65767;49.360;8.266;2023-01-05T03:57:52;0.80;;;0.80;;
76813;SDS011;65767;49.360;8.266;2023-01-05T03:58:54;0.50;;;0.50;;
76813;SDS011;65767;49.360;8.266;2023-01-05T03:59:55;0.80;;;0.70;;
76813;SDS011;65767;49.360;8.266;2023-01-05T04:00:56;0.87;;;0.87;;
76813;SDS011;65767;49.360;8.266;2023-01-05T04:01:57;0.65;;;0.65;;
76813;SDS011;65767;49.360;8.266;2023-01-05T04:02:59;2.20;;;0.70;;
76813;SDS011;65767;49.360;8.266;2023-01-05T04:03:59;0.80;;;0.53;;
76813;SDS011;65767;49.360;8.266;2023-01-05T04:05:00;0.50;;;0.50;;
76813;SDS011;65767;49.360;8.266;2023-01-05T04:06:01;2.03;;;1.20;;
76813;SDS011;65767;49.360;8.266;2023-01-05T04:07:03;1.33;;;1.00;;
76813;SDS011;65767;49.360;8.266;2023-01-05T04:08:06;1.70;;;1.10;;
76813;SDS011;65767;49.360;8.266;2023-01-05T04:09:08;1.58;;;1.10;;
76813;SDS011;65767;49.360;8.266;2023-01-05T04:10:10;1.50;;;1.15;;
76813;SDS011;65767;49.360;8.266;2023-01-05T04:11:15;3.10;;;0.90;;
76813;SDS011;65767;49.360;8.266;2023-01-05T04:12:21;3.45;;;1.02;;
76813;SDS011;65767;49.360;8.266;2023-01-05T04:13:23;0.82;;;0.60;;
76813;SDS011;65767;49.360;8.266;2023-01-05T04:14:25;4.25;;;1.15;;
76813;SDS011;65767;49.360;8.266;2023-01-05T04:15:26;2.23;;;0.90;;
76813;SDS011;65767;49.360;8.266;2023-01-05T04:16:28;3.63;;;0.90;;
76813;SDS011;65767;49.360;8.266;2023-01-05T04:17:31;3.08;;;0.88;;
76813;SDS011;65767;49.360;8.266;2023-01-05T04:18:31;2.17;;;1.00;;
76813;SDS011;65767;49.360;8.266;2023-01-05T04:19:31;4.97;;;0.90;;
76813;SDS011;65767;49.360;8.266;2023-01-05T04:20:32;3.37;;;1.33;;
76813;SDS011;65767;49.360;8.266;2023-01-05T04:21:32;6.47;;;2.33;;
76813;SDS011;65767;49.360;8.266;2023-01-05T04:22:34;6.40;;;1.67;;
76813;SDS011;65767;49.360;8.266;2023-01-05T04:23:35;8.70;;;2.07;;
76813;SDS011;65767;49.360;8.266;2023-01-05T04:24:35;8.27;;;2.40;;
76813;SDS011;65767;49.360;8.266;2023-01-05T04:25:37;7.72;;;2.33;;
76813;SDS011;65767;49.360;8.266;2023-01-05T04:26:48;9.23;;;2.47;;
76813;SDS011;65767;49.360;8.266;2023-01-05T04:27:51;9.73;;;2.58;;
76813;SDS011;65767;49.360;8.266;2023-01-05T04:28:52;11.00;;;3.63;;
76813;SDS011;65767;49.360;8.266;2023-01-05T04:29:57;13.20;;;3.30;;
76813;SDS011;65767;49.360;8.266;2023-01-05T04:30:57;9.67;;;2.70;;
76813;SDS011;65767;49.360;8.266;2023-01-05T04:31:58;10.57;;;2.80;;
76813;SDS011;65767;49.360;8.266;2023-01-05T04:32:59;7.33;;;2.50;;
76813;SDS011;65767;49.360;8.266;2023-01-05T04:33:59;12.73;;;3.17;;
76813;SDS011;65767;49.360;8.266;2023-01-05T04:35:00;13.00;;;3.00;;
76813;SDS011;65767;49.360;8.266;2023-01-05T04:36:01;13.90;;;3.53;;
76813;SDS011;65767;49.360;8.266;2023-01-05T04:37:04;11.05;;;3.10;;
76813;SDS011;65767;49.360;8.266;2023-01-05T04:38:06;11.25;;;3.00;;
76813;SDS011;65767;49.360;8.266;2023-01-05T04:39:06;10.00;;;2.70;;
76813;SDS011;65767;49.360;8.266;2023-01-05T04:40:10;10.35;;;2.70;;
76813;SDS011;65767;49.360;8.266;2023-01-05T04:41:24;12.50;;;3.40;;
76813;SDS011;65767;49.360;8.266;2023-01-05T04:42:26;14.18;;;3.30;;
76813;SDS011;65767;49.360;8.266;2023-01-05T04:43:28;11.02;;;3.25;;
76813;SDS011;65767;49.360;8.266;2023-01-05T04:44:32;15.40;;;3.65;;
76813;SDS011;65767;49.360;8.266;2023-01-05T04:45:35;14.43;;;3.05;;
76813;SDS011;65767;49.360;8.266;2023-01-05T04:46:39;11.50;;;3.38;;
76813;SDS011;65767;49.360;8.266;2023-01-05T04:47:41;10.50;;;2.70;;
76813;SDS011;65767;49.360;8.266;2023-01-05T04:48:43;10.25;;;3.28;;
76813;SDS011;65767;49.360;8.266;2023-01-05T04:49:44;14.77;;;3.40;;
76813;SDS011;65767;49.360;8.266;2023-01-05T04:50:50;7.40;;;2.70;;
76813;SDS011;65767;49.360;8.266;2023-01-05T04:51:51;12.18;;;3.33;;
76813;SDS011;65767;49.360;8.266;2023-01-05T04:52:54;13.45;;;3.20;;
76813;SDS011;65767;49.360;8.266;2023-01-05T04:53:55;16.00;;;3.60;;
76813;SDS011;65767;49.360;8.266;2023-01-05T04:54:58;11.93;;;2.97;;
76813;SDS011;65767;49.360;8.266;2023-01-05T04:56:00;14.93;;;3.00;;
76813;SDS011;65767;49.360;8.266;2023-01-05T04:57:06;9.48;;;2.83;;
76813;SDS011;65767;49.360;8.266;2023-01-05T04:58:07;10.40;;;2.97;;
76813;SDS011;65767;49.360;8.266;2023-01-05T04:59:08;14.63;;;3.22;;
76813;SDS011;65767;49.360;8.266;2023-01-05T05:00:10;14.25;;;2.95;;
76813;SDS011;65767;49.360;8.266;2023-01-05T05:01:11;14.18;;;3.08;;
76813;SDS011;65767;49.360;8.266;2023-01-05T05:02:13;10.70;;;3.20;;
76813;SDS011;65767;49.360;8.266;2023-01-05T05:03:16;14.70;;;3.05;;
76813;SDS011;65767;49.360;8.266;2023-01-05T05:04:17;13.50;;;3.07;;
76813;SDS011;65767;49.360;8.266;2023-01-05T05:05:19;15.25;;;3.15;;
76813;SDS011;65767;49.360;8.266;2023-01-05T05:06:24;11.70;;;3.47;;
76813;SDS011;65767;49.360;8.266;2023-01-05T05:07:26;11.70;;;3.22;;
76813;SDS011;65767;49.360;8.266;2023-01-05T05:08:27;14.97;;;3.03;;
76813;SDS011;65767;49.360;8.266;2023-01-05T05:09:27;13.27;;;3.30;;
76813;SDS011;65767;49.360;8.266;2023-01-05T05:10:28;11.03;;;3.20;;
76813;SDS011;65767;49.360;8.266;2023-01-05T05:11:28;14.57;;;2.93;;
76813;SDS011;65767;49.360;8.266;2023-01-05T05:12:29;11.90;;;3.00;;
76813;SDS011;65767;49.360;8.266;2023-01-05T05:13:30;15.07;;;2.70;;
76813;SDS011;65767;49.360;8.266;2023-01-05T05:14:31;11.40;;;2.80;;
76813;SDS011;65767;49.360;8.266;2023-01-05T05:15:33;10.25;;;2.90;;
76813;SDS011;65767;49.360;8.266;2023-01-05T05:16:35;11.45;;;3.00;;
76813;SDS011;65767;49.360;8.266;2023-01-05T05:17:36;13.38;;;3.53;;
76813;SDS011;65767;49.360;8.266;2023-01-05T05:18:36;12.40;;;3.23;;
76813;SDS011;65767;49.360;8.266;2023-01-05T05:19:38;12.38;;;2.63;;
76813;SDS011;65767;49.360;8.266;2023-01-05T05:20:40;19.07;;;3.43;;
76813;SDS011;65767;49.360;8.266;2023-01-05T05:21:41;13.35;;;3.00;;
76813;SDS011;65767;49.360;8.266;2023-01-05T05:22:42;13.13;;;2.97;;
76813;SDS011;65767;49.360;8.266;2023-01-05T05:23:45;15.63;;;3.63;;
76813;SDS011;65767;49.360;8.266;2023-01-05T05:24:45;11.83;;;3.17;;
76813;SDS011;65767;49.360;8.266;2023-01-05T05:25:50;9.38;;;2.90;;
76813;SDS011;65767;49.360;8.266;2023-01-05T05:26:51;14.73;;;2.90;;
76813;SDS011;65767;49.360;8.266;2023-01-05T05:27:52;11.83;;;2.73;;
76813;SDS011;65767;49.360;8.266;2023-01-05T05:28:52;12.63;;;3.17;;
76813;SDS011;65767;49.360;8.266;2023-01-05T05:29:52;13.03;;;3.43;;
76813;SDS011;65767;49.360;8.266;2023-01-05T05:30:53;15.03;;;3.13;;
76813;SDS011;65767;49.360;8.266;2023-01-05T05:31:55;12.20;;;3.22;;
76813;SDS011;65767;49.360;8.266;2023-01-05T05:32:55;11.90;;;2.87;;
76813;SDS011;65767;49.360;8.266;2023-01-05T05:33:55;13.17;;;3.30;;
76813;SDS011;65767;49.360;8.266;2023-01-05T05:34:56;9.63;;;2.90;;
76813;SDS011;65767;49.360;8.266;2023-01-05T05:35:56;11.80;;;3.23;;
76813;SDS011;65767;49.360;8.266;2023-01-05T05:36:56;11.30;;;2.73;;
76813;SDS011;65767;49.360;8.266;2023-01-05T05:37:57;12.60;;;2.87;;
76813;SDS011;65767;49.360;8.266;2023-01-05T05:38:57;10.60;;;3.00;;
76813;SDS011;65767;49.360;8.266;2023-01-05T05:39:57;13.90;;;3.30;;
76813;SDS011;65767;49.360;8.266;2023-01-05T05:40:58;11.80;;;3.37;;
76813;SDS011;65767;49.360;8.266;2023-01-05T05:41:58;12.87;;;3.07;;
76813;SDS011;65767;49.360;8.266;2023-01-05T05:42:59;9.20;;;2.90;;
76813;SDS011;65767;49.360;8.266;2023-01-05T05:43:59;12.93;;;3.27;;
76813;SDS011;65767;49.360;8.266;2023-01-05T05:45:01;10.98;;;3.10;;
76813;SDS011;65767;49.360;8.266;2023-01-05T05:46:02;9.93;;;3.57;;
76813;SDS011;65767;49.360;8.266;2023-01-05T05:47:02;12.80;;;3.10;;
76813;SDS011;65767;49.360;8.266;2023-01-05T05:48:03;8.80;;;2.80;;
76813;SDS011;65767;49.360;8.266;2023-01-05T05:49:05;14.20;;;2.83;;
76813;SDS011;65767;49.360;8.266;2023-01-05T05:50:08;10.27;;;2.72;;
76813;SDS011;65767;49.360;8.266;2023-01-05T05:51:08;13.20;;;3.00;;
76813;SDS011;65767;49.360;8.266;2023-01-05T05:52:09;12.43;;;3.37;;
76813;SDS011;65767;49.360;8.266;2023-01-05T05:53:09;11.87;;;3.23;;
76813;SDS011;65767;49.360;8.266;2023-01-05T05:54:10;11.47;;;3.10;;
76813;SDS011;65767;49.360;8.266;2023-01-05T05:55:10;16.43;;;3.50;;
76813;SDS011;65767;49.360;8.266;2023-01-05T05:56:11;12.97;;;3.13;;
76813;SDS011;65767;49.360;8.266;2023-01-05T05:57:11;14.10;;;3.30;;
76813;SDS011;65767;49.360;8.266;2023-01-05T05:58:11;12.13;;;3.03;;
76813;SDS011;65767;49.360;8.266;2023-01-05T05:59:12;11.07;;;2.80;;
76813;SDS011;65767;49.360;8.266;2023-01-05T06:00:13;10.20;;;3.20;;
76813;SDS011;65767;49.360;8.266;2023-01-05T06:01:13;13.93;;;2.87;;
76813;SDS011;65767;49.360;8.266;2023-01-05T06:02:14;11.03;;;3.23;;
76813;SDS011;65767;49.360;8.266;2023-01-05T06:03:15;13.88;;;2.97;;
76813;SDS011;65767;49.360;8.266;2023-01-05T06:04:16;10.70;;;3.57;;
76813;SDS011;65767;49.360;8.266;2023-01-05T06:05:17;12.20;;;2.65;;
76813;SDS011;65767;49.360;8.266;2023-01-05T06:06:18;16.17;;;3.47;;
76813;SDS011;65767;49.360;8.266;2023-01-05T06:07:18;11.50;;;3.20;;
76813;SDS011;65767;49.360;8.266;2023-01-05T06:08:19;16.43;;;3.47;;
76813;SDS011;65767;49.360;8.266;2023-01-05T06:09:19;13.67;;;3.20;;
76813;SDS011;65767;49.360;8.266;2023-01-05T06:10:19;8.37;;;2.97;;
76813;SDS011;65767;49.360;8.266;2023-01-05T06:11:20;10.70;;;3.23;;
76813;SDS011;65767;49.360;8.266;2023-01-05T06:12:21;16.50;;;3.70;;
76813;SDS011;65767;49.360;8.266;2023-01-05T06:13:21;13.60;;;3.67;;
76813;SDS011;65767;49.360;8.266;2023-01-05T06:14:22;10.00;;;3.43;;
76813;SDS011;65767;49.360;8.266;2023-01-05T06:15:22;11.33;;;3.10;;
76813;SDS011;65767;49.360;8.266;2023-01-05T06:16:23;15.33;;;3.90;;
76813;SDS011;65767;49.360;8.266;2023-01-05T06:17:23;10.93;;;3.30;;
76813;SDS011;65767;49.360;8.266;2023-01-05T06:18:24;10.13;;;3.00;;
76813;SDS011;65767;49.360;8.266;2023-01-05T06:19:24;14.90;;;4.03;;
76813;SDS011;65767;49.360;8.266;2023-01-05T06:20:25;12.60;;;3.23;;
76813;SDS011;65767;49.360;8.266;2023-01-05T06:21:25;18.83;;;3.83;;
76813;SDS011;65767;49.360;8.266;2023-01-05T06:22:25;16.13;;;3.47;;
76813;SDS011;65767;49.360;8.266;2023-01-05T06:23:26;14.80;;;3.03;;
76813;SDS011;65767;49.360;8.266;2023-01-05T06:24:26;13.77;;;3.57;;
76813;SDS011;65767;49.360;8.266;2023-01-05T06:25:26;11.23;;;2.87;;
76813;SDS011;65767;49.360;8.266;2023-01-05T06:26:27;13.10;;;2.77;;
76813;SDS011;65767;49.360;8.266;2023-01-05T06:27:27;13.33;;;3.23;;
76813;SDS011;65767;49.360;8.266;2023-01-05T06:28:27;13.00;;;3.50;;
76813;SDS011;65767;49.360;8.266;2023-01-05T06:29:28;10.93;;;3.03;;
76813;SDS011;65767;49.360;8.266;2023-01-05T06:30:28;13.57;;;3.20;;
76813;SDS011;65767;49.360;8.266;2023-01-05T06:31:29;13.93;;;3.40;;
76813;SDS011;65767;49.360;8.266;2023-01-05T06:32:29;12.27;;;3.77;;
76813;SDS011;65767;49.360;8.266;2023-01-05T06:33:29;14.33;;;3.43;;
76813;SDS011;65767;49.360;8.266;2023-01-05T06:34:30;11.33;;;3.20;;
76813;SDS011;65767;49.360;8.266;2023-01-05T06:35:30;13.63;;;3.40;;
76813;SDS011;65767;49.360;8.266;2023-01-05T06:36:30;10.93;;;3.33;;
76813;SDS011;65767;49.360;8.266;2023-01-05T06:37:31;11.80;;;3.40;;
76813;SDS011;65767;49.360;8.266;2023-01-05T06:38:31;14.50;;;3.57;;
76813;SDS011;65767;49.360;8.266;2023-01-05T06:39:32;15.00;;;3.43;;
76813;SDS011;65767;49.360;8.266;2023-01-05T06:40:32;13.07;;;3.20;;
76813;SDS011;65767;49.360;8.266;2023-01-05T06:41:32;14.27;;;3.23;;
76813;SDS011;65767;49.360;8.266;2023-01-05T06:42:34;10.05;;;3.20;;
76813;SDS011;65767;49.360;8.266;2023-01-05T06:43:34;17.13;;;3.77;;
76813;SDS011;65767;49.360;8.266;2023-01-05T06:44:35;9.97;;;2.77;;
76813;SDS011;65767;49.360;8.266;2023-01-05T06:45:35;11.57;;;2.83;;
76813;SDS011;65767;49.360;8.266;2023-01-05T06:46:35;11.90;;;3.20;;
76813;SDS011;65767;49.360;8.266;2023-01-05T06:47:36;13.67;;;3.37;;